createdAt,value
2019-06-15T00:01:01.895Z,44.91
2019-06-15T00:06:03.244Z,45.93
2019-06-15T00:11:04.633Z,44.98
2019-06-15T00:16:06.035Z,44.97
2019-06-15T00:21:08.069Z,44.64
2019-06-15T00:26:09.461Z,45.27
2019-06-15T00:31:10.867Z,45.27
2019-06-15T00:36:12.233Z,44.69
2019-06-15T00:41:13.611Z,45.11
2019-06-15T00:46:15.022Z,45.12
2019-06-15T00:51:16.392Z,44.61
2019-06-15T00:56:17.782Z,44.89
2019-06-15T01:01:19.150Z,44.67
2019-06-15T01:06:20.523Z,44.56
2019-06-15T01:11:21.814Z,44.72
2019-06-15T01:16:23.227Z,44.81
2019-06-15T01:21:25.328Z,46.87
2019-06-15T01:26:26.771Z,46.57
2019-06-15T01:31:28.880Z,45.67
2019-06-15T01:36:30.238Z,45.36
2019-06-15T01:41:31.599Z,45.46
2019-06-15T01:46:33.008Z,45.63
2019-06-15T01:51:34.458Z,45.68
2019-06-15T01:56:35.809Z,47.85
2019-06-15T02:01:37.181Z,50.82
2019-06-15T02:06:38.542Z,47.84
2019-06-15T02:11:39.918Z,46.97
2019-06-15T02:16:41.298Z,46.91
2019-06-15T02:21:42.607Z,46.61
2019-06-15T02:26:43.961Z,46.98
2019-06-15T02:31:45.286Z,50.99
2019-06-15T02:36:46.714Z,49.71
2019-06-15T02:41:48.085Z,48.85
2019-06-15T02:46:49.447Z,48.26
2019-06-15T02:51:50.887Z,48.58
2019-06-15T02:56:52.321Z,48.49
2019-06-15T03:01:53.696Z,48.35
2019-06-15T03:06:55.064Z,48.20
2019-06-15T03:11:56.411Z,48.59
2019-06-15T03:16:57.904Z,48.31
2019-06-15T03:21:59.194Z,48.51
2019-06-15T03:27:00.601Z,48.47
2019-06-15T03:32:02.034Z,49.06
2019-06-15T03:37:03.325Z,50.34
2019-06-15T03:42:04.660Z,49.16
2019-06-15T03:47:06.044Z,48.86
2019-06-15T03:52:07.379Z,48.74
2019-06-15T03:57:08.730Z,48.72
2019-06-15T04:02:10.063Z,48.09
2019-06-15T04:07:11.406Z,47.68
2019-06-15T04:12:12.710Z,47.37
2019-06-15T04:17:14.171Z,47.45
2019-06-15T04:22:15.524Z,47.51
2019-06-15T04:27:16.864Z,47.41
2019-06-15T04:32:18.173Z,47.87
2019-06-15T04:37:19.588Z,47.75
2019-06-15T04:42:20.888Z,47.54
2019-06-15T04:47:22.228Z,46.95
2019-06-15T04:52:23.573Z,46.29
2019-06-15T04:57:24.933Z,46.39
2019-06-15T05:02:27.362Z,45.67
2019-06-15T05:07:27.664Z,45.17
2019-06-15T05:12:29.021Z,46.62
2019-06-15T05:17:30.369Z,50.98
2019-06-15T05:22:31.828Z,48.83
2019-06-15T05:27:33.212Z,46.88
2019-06-15T05:32:34.625Z,46.93
2019-06-15T05:37:36.059Z,45.66
2019-06-15T05:42:37.420Z,43.96
2019-06-15T05:47:38.772Z,43.22
2019-06-15T05:52:40.909Z,42.20
2019-06-15T05:57:42.262Z,42.78
2019-06-15T06:02:43.672Z,41.64
2019-06-15T06:07:45.782Z,40.45
2019-06-15T06:12:47.152Z,40.02
2019-06-15T06:17:48.519Z,39.80
2019-06-15T06:22:49.989Z,41.66
2019-06-15T06:27:51.367Z,40.30
2019-06-15T06:32:52.788Z,41.09
2019-06-15T06:37:54.889Z,40.90
2019-06-15T06:42:56.325Z,40.11
2019-06-15T06:47:57.677Z,40.55
2019-06-15T06:52:59.020Z,40.54
2019-06-15T06:58:00.383Z,40.14
2019-06-15T07:03:05.644Z,38.89
2019-06-15T07:08:07.033Z,39.24
2019-06-15T07:13:08.381Z,38.37
2019-06-15T07:18:09.720Z,38.63
2019-06-15T07:23:11.096Z,39.55
2019-06-15T07:28:12.494Z,37.85
2019-06-15T07:33:13.817Z,39.13
2019-06-15T07:38:15.137Z,39.85
2019-06-15T07:43:16.493Z,40.57
2019-06-15T07:48:17.840Z,39.67
2019-06-15T07:53:19.205Z,40.44
2019-06-15T07:58:24.584Z,40.57
2019-06-15T08:03:22.721Z,40.81
2019-06-15T08:08:24.209Z,39.15
2019-06-15T08:13:25.488Z,40.20
2019-06-15T08:18:26.927Z,40.19
2019-06-15T08:23:28.357Z,42.00
2019-06-15T08:28:39.824Z,40.77
2019-06-15T08:33:31.070Z,41.42
2019-06-15T08:38:33.164Z,39.60
2019-06-15T08:43:34.541Z,40.55
2019-06-15T08:48:35.936Z,41.45
2019-06-15T08:53:37.390Z,40.83
2019-06-15T08:58:38.879Z,39.74
2019-06-15T09:03:40.297Z,39.78
2019-06-15T09:08:41.652Z,41.02
2019-06-15T09:13:43.173Z,39.99
2019-06-15T09:18:44.584Z,39.22
2019-06-15T09:23:46.061Z,40.17
2019-06-15T09:28:48.232Z,39.89
2019-06-15T09:33:49.532Z,39.32
2019-06-15T09:38:50.873Z,40.31
2019-06-15T09:43:52.953Z,39.25
2019-06-15T09:48:54.313Z,40.06
2019-06-15T09:53:56.421Z,39.57
2019-06-15T09:58:57.756Z,39.79
2019-06-15T10:03:59.130Z,39.45
2019-06-15T10:09:00.465Z,39.70
2019-06-15T10:14:01.819Z,39.00
2019-06-15T10:19:03.218Z,38.83
2019-06-15T10:24:04.641Z,39.28
2019-06-15T10:29:06.080Z,40.27
2019-06-15T10:34:07.430Z,40.48
2019-06-15T10:39:09.504Z,38.16
2019-06-15T10:44:11.630Z,39.46
2019-06-15T10:49:12.953Z,38.13
2019-06-15T10:54:15.104Z,37.55
2019-06-15T10:59:16.486Z,36.77
2019-06-15T11:04:17.841Z,37.61
2019-06-15T11:09:19.194Z,38.04
2019-06-15T11:14:20.546Z,37.89
2019-06-15T11:19:21.939Z,38.43
2019-06-15T11:24:23.326Z,38.10
2019-06-15T11:29:25.387Z,36.47
2019-06-15T11:34:26.757Z,36.93
2019-06-15T11:39:28.228Z,37.02
2019-06-15T11:44:29.578Z,37.85
2019-06-15T11:49:30.937Z,35.96
2019-06-15T11:54:32.298Z,35.22
2019-06-15T11:59:33.781Z,36.45
2019-06-15T12:04:35.142Z,38.24
2019-06-15T12:09:36.490Z,38.03
2019-06-15T12:14:37.860Z,37.20
2019-06-15T12:19:39.242Z,36.47
2019-06-15T12:24:40.653Z,37.61
2019-06-15T12:29:42.036Z,36.05
2019-06-15T12:34:43.433Z,37.03
2019-06-15T12:39:44.797Z,36.00
2019-06-15T12:44:46.224Z,34.15
2019-06-15T12:49:47.552Z,35.98
2019-06-15T12:54:49.620Z,34.06
2019-06-15T12:59:51.034Z,34.30
2019-06-15T13:04:52.383Z,35.04
2019-06-15T13:09:54.517Z,36.28
2019-06-15T13:14:55.971Z,36.69
2019-06-15T13:19:57.405Z,37.10
2019-06-15T13:24:58.922Z,38.02
2019-06-15T13:30:00.279Z,37.58
2019-06-15T13:35:01.595Z,38.46
2019-06-15T13:40:03.818Z,35.54
2019-06-15T13:45:05.710Z,37.34
2019-06-15T13:50:07.056Z,36.35
2019-06-15T13:55:08.372Z,37.38
2019-06-15T14:00:09.708Z,35.71
2019-06-15T14:05:11.031Z,37.38
2019-06-15T14:10:12.410Z,36.75
2019-06-15T14:15:13.771Z,37.62
2019-06-15T14:20:15.150Z,38.01
2019-06-15T14:25:16.553Z,36.85
2019-06-15T14:30:18.083Z,37.22
2019-06-15T14:35:19.378Z,36.65
2019-06-15T14:40:20.682Z,37.70
2019-06-15T14:45:22.012Z,36.87
2019-06-15T14:50:23.362Z,37.76
2019-06-15T14:55:26.267Z,37.54
2019-06-15T15:00:26.193Z,36.52
2019-06-15T15:05:27.690Z,37.53
2019-06-15T15:10:28.922Z,38.65
2019-06-15T15:15:30.270Z,37.47
2019-06-15T15:20:31.689Z,39.26
2019-06-15T15:25:33.157Z,37.71
2019-06-15T15:30:39.267Z,36.87
2019-06-15T15:35:40.630Z,38.38
2019-06-15T15:40:41.996Z,39.51
2019-06-15T15:45:45.909Z,38.65
2019-06-15T15:50:46.855Z,39.45
2019-06-15T15:55:46.821Z,39.75
2019-06-15T16:00:47.434Z,39.38
2019-06-15T16:05:49.505Z,39.11
2019-06-15T16:10:50.865Z,38.26
2019-06-15T16:15:52.433Z,38.06
2019-06-15T16:20:54.340Z,38.26
2019-06-15T16:25:56.749Z,38.34
2019-06-15T16:31:06.761Z,38.26
2019-06-15T16:35:59.982Z,37.86
2019-06-15T16:41:01.330Z,37.70
2019-06-15T16:46:02.725Z,37.35
2019-06-15T16:51:06.545Z,37.13
2019-06-15T16:56:06.096Z,37.13
2019-06-15T17:01:07.070Z,37.77
2019-06-15T17:06:08.402Z,36.93
2019-06-15T17:11:09.726Z,38.01
2019-06-15T17:16:11.895Z,38.65
2019-06-15T17:21:14.000Z,38.70
2019-06-15T17:26:16.834Z,37.75
2019-06-15T17:31:16.752Z,38.47
2019-06-15T17:36:18.078Z,38.35
2019-06-15T17:41:20.171Z,39.87
2019-06-15T17:46:21.513Z,40.48
2019-06-15T17:51:22.881Z,40.04
2019-06-15T17:56:26.651Z,40.88
2019-06-15T18:01:26.606Z,40.91
2019-06-15T18:06:27.101Z,41.94
2019-06-15T18:11:28.410Z,41.75
2019-06-15T18:16:30.582Z,42.78
2019-06-15T18:21:31.098Z,42.13
2019-06-15T18:26:32.581Z,43.97
2019-06-15T18:31:36.311Z,42.79
2019-06-15T18:36:36.578Z,44.09
2019-06-15T18:41:37.112Z,44.27
2019-06-15T18:46:38.938Z,44.41
2019-06-15T18:51:40.321Z,44.35
2019-06-15T18:56:41.633Z,43.36
2019-06-15T19:01:43.045Z,41.68
2019-06-15T19:06:46.621Z,41.52
2019-06-15T19:11:45.836Z,42.06
2019-06-15T19:16:47.301Z,42.14
2019-06-15T19:21:57.153Z,42.03
2019-06-15T19:26:58.299Z,41.99
2019-06-15T19:31:58.825Z,42.34
2019-06-15T19:37:00.169Z,42.24
2019-06-15T19:42:01.613Z,42.46
2019-06-15T19:47:03.616Z,42.18
2019-06-15T19:52:06.679Z,41.73
2019-06-15T19:57:07.858Z,42.06
2019-06-15T20:02:13.803Z,41.81
2019-06-15T20:07:17.037Z,41.50
2019-06-15T20:12:21.845Z,41.22
2019-06-15T20:17:19.670Z,41.52
2019-06-15T20:22:21.786Z,41.56
2019-06-15T20:27:23.093Z,41.93
2019-06-15T20:32:26.258Z,41.95
2019-06-15T20:37:26.278Z,41.70
2019-06-15T20:42:27.193Z,41.56
2019-06-15T20:47:28.528Z,41.46
2019-06-15T20:52:29.930Z,41.45
2019-06-15T20:57:31.281Z,41.69
2019-06-15T21:02:32.621Z,42.16
2019-06-15T21:07:36.160Z,42.08
2019-06-15T21:12:37.631Z,42.33
2019-06-15T21:17:37.200Z,42.41
2019-06-15T21:22:38.185Z,42.34
2019-06-15T21:27:39.638Z,42.58
2019-06-15T21:32:40.979Z,42.77
2019-06-15T21:37:43.082Z,43.26
2019-06-15T21:42:46.727Z,43.46
2019-06-15T21:47:46.403Z,43.27
2019-06-15T21:52:47.196Z,43.84
2019-06-15T21:57:48.539Z,43.66
2019-06-15T22:02:49.914Z,44.40
2019-06-15T22:07:51.265Z,44.46
2019-06-15T22:12:52.652Z,49.42
2019-06-15T22:17:54.051Z,51.90
2019-06-15T22:22:55.329Z,57.04
2019-06-15T22:27:57.429Z,64.47
2019-06-15T22:32:58.778Z,67.45
2019-06-15T22:38:00.140Z,73.39
2019-06-15T22:43:01.572Z,75.19
2019-06-15T22:48:02.930Z,74.48
2019-06-15T22:53:07.141Z,70.56
2019-06-15T22:58:06.507Z,70.25
2019-06-15T23:03:07.149Z,71.10
2019-06-15T23:08:08.512Z,70.00
2019-06-15T23:13:09.849Z,73.77
2019-06-15T23:18:11.306Z,74.86
2019-06-15T23:23:12.610Z,71.32
2019-06-15T23:28:16.358Z,72.45
2019-06-15T23:33:17.228Z,72.71
2019-06-15T23:38:16.833Z,70.80
2019-06-15T23:43:18.186Z,68.91
2019-06-15T23:48:19.522Z,68.82
2019-06-15T23:53:20.920Z,69.71
2019-06-15T23:58:23.097Z,67.98
